sensor_id;sensor_type;location;lat;lon;timestamp;temperature;humidity
3942;DHT22;1985;48.592;8.850;2022-10-16T00:01:36;16.50;99.90
3942;DHT22;1985;48.592;8.850;2022-10-16T00:04:03;16.40;99.90
3942;DHT22;1985;48.592;8.850;2022-10-16T00:06:29;16.40;99.90
3942;DHT22;1985;48.592;8.850;2022-10-16T00:08:55;16.20;99.90
3942;DHT22;1985;48.592;8.850;2022-10-16T00:11:23;16.20;99.90
3942;DHT22;1985;48.592;8.850;2022-10-16T00:13:51;16.20;99.90
3942;DHT22;1985;48.592;8.850;2022-10-16T00:16:18;16.30;99.90
3942;DHT22;1985;48.592;8.850;2022-10-16T00:18:44;16.30;99.90
3942;DHT22;1985;48.592;8.850;2022-10-16T00:21:16;16.30;99.90
3942;DHT22;1985;48.592;8.850;2022-10-16T00:23:43;16.20;99.90
3942;DHT22;1985;48.592;8.850;2022-10-16T00:26:15;16.10;99.90
3942;DHT22;1985;48.592;8.850;2022-10-16T00:28:40;16.00;99.90
3942;DHT22;1985;48.592;8.850;2022-10-16T00:31:08;16.10;99.90
3942;DHT22;1985;48.592;8.850;2022-10-16T00:33:35;16.10;99.90
3942;DHT22;1985;48.592;8.850;2022-10-16T00:36:03;16.10;99.90
3942;DHT22;1985;48.592;8.850;2022-10-16T00:38:29;16.20;99.90
3942;DHT22;1985;48.592;8.850;2022-10-16T00:40:55;16.10;99.90
3942;DHT22;1985;48.592;8.850;2022-10-16T00:48:52;16.00;99.90
3942;DHT22;1985;48.592;8.850;2022-10-16T00:51:22;16.00;99.90
3942;DHT22;1985;48.592;8.850;2022-10-16T00:53:49;16.00;99.90
3942;DHT22;1985;48.592;8.850;2022-10-16T00:56:15;16.00;99.90
3942;DHT22;1985;48.592;8.850;2022-10-16T00:58:41;16.00;99.90
3942;DHT22;1985;48.592;8.850;2022-10-16T01:01:07;15.90;99.90
3942;DHT22;1985;48.592;8.850;2022-10-16T01:03:35;16.00;99.90
3942;DHT22;1985;48.592;8.850;2022-10-16T01:14:23;16.00;99.90
3942;DHT22;1985;48.592;8.850;2022-10-16T01:17:09;16.00;99.90
3942;DHT22;1985;48.592;8.850;2022-10-16T01:22:17;16.10;99.90
3942;DHT22;1985;48.592;8.850;2022-10-16T01:24:46;16.00;99.90
3942;DHT22;1985;48.592;8.850;2022-10-16T01:27:21;16.00;99.90
3942;DHT22;1985;48.592;8.850;2022-10-16T01:29:58;16.00;99.90
3942;DHT22;1985;48.592;8.850;2022-10-16T01:35:05;16.00;99.90
3942;DHT22;1985;48.592;8.850;2022-10-16T01:37:41;16.00;99.90
3942;DHT22;1985;48.592;8.850;2022-10-16T01:40:11;16.10;99.90
3942;DHT22;1985;48.592;8.850;2022-10-16T01:42:45;16.10;99.90
3942;DHT22;1985;48.592;8.850;2022-10-16T01:45:14;16.10;99.90
3942;DHT22;1985;48.592;8.850;2022-10-16T01:47:43;15.90;99.90
3942;DHT22;1985;48.592;8.850;2022-10-16T01:50:10;16.00;99.90
3942;DHT22;1985;48.592;8.850;2022-10-16T01:52:40;16.00;99.90
3942;DHT22;1985;48.592;8.850;2022-10-16T01:55:09;16.10;99.90
3942;DHT22;1985;48.592;8.850;2022-10-16T01:57:39;16.10;99.90
3942;DHT22;1985;48.592;8.850;2022-10-16T02:00:10;16.10;99.90
3942;DHT22;1985;48.592;8.850;2022-10-16T02:02:39;16.20;99.90
3942;DHT22;1985;48.592;8.850;2022-10-16T02:05:12;16.10;99.90
3942;DHT22;1985;48.592;8.850;2022-10-16T02:07:39;16.10;99.90
3942;DHT22;1985;48.592;8.850;2022-10-16T02:10:08;16.00;99.90
3942;DHT22;1985;48.592;8.850;2022-10-16T02:12:36;15.90;99.90
3942;DHT22;1985;48.592;8.850;2022-10-16T02:15:05;15.90;99.90
3942;DHT22;1985;48.592;8.850;2022-10-16T02:17:31;15.90;99.90
3942;DHT22;1985;48.592;8.850;2022-10-16T02:19:57;16.00;99.90
3942;DHT22;1985;48.592;8.850;2022-10-16T02:22:27;16.10;99.90
3942;DHT22;1985;48.592;8.850;2022-10-16T02:27:42;16.00;99.90
3942;DHT22;1985;48.592;8.850;2022-10-16T02:32:46;16.00;99.90
3942;DHT22;1985;48.592;8.850;2022-10-16T02:35:14;16.10;99.90
3942;DHT22;1985;48.592;8.850;2022-10-16T02:37:41;16.20;99.90
3942;DHT22;1985;48.592;8.850;2022-10-16T02:40:08;16.20;99.90
3942;DHT22;1985;48.592;8.850;2022-10-16T02:42:36;16.10;99.90
3942;DHT22;1985;48.592;8.850;2022-10-16T02:45:03;16.10;99.90
3942;DHT22;1985;48.592;8.850;2022-10-16T02:47:29;16.10;99.90
3942;DHT22;1985;48.592;8.850;2022-10-16T02:49:54;16.10;99.90
3942;DHT22;1985;48.592;8.850;2022-10-16T02:52:20;16.10;99.90
3942;DHT22;1985;48.592;8.850;2022-10-16T02:54:46;16.20;99.90
3942;DHT22;1985;48.592;8.850;2022-10-16T02:57:11;16.10;99.90
3942;DHT22;1985;48.592;8.850;2022-10-16T02:59:37;16.10;99.90
3942;DHT22;1985;48.592;8.850;2022-10-16T03:02:03;16.00;99.90
3942;DHT22;1985;48.592;8.850;2022-10-16T03:04:28;16.10;99.90
3942;DHT22;1985;48.592;8.850;2022-10-16T03:06:54;16.10;99.90
3942;DHT22;1985;48.592;8.850;2022-10-16T03:09:19;16.10;99.90
3942;DHT22;1985;48.592;8.850;2022-10-16T03:11:45;16.10;99.90
3942;DHT22;1985;48.592;8.850;2022-10-16T03:14:10;16.10;99.90
3942;DHT22;1985;48.592;8.850;2022-10-16T03:16:36;16.10;99.90
3942;DHT22;1985;48.592;8.850;2022-10-16T03:19:02;16.10;99.90
3942;DHT22;1985;48.592;8.850;2022-10-16T03:21:27;16.10;99.90
3942;DHT22;1985;48.592;8.850;2022-10-16T03:23:53;16.20;99.90
3942;DHT22;1985;48.592;8.850;2022-10-16T03:26:19;16.20;99.90
3942;DHT22;1985;48.592;8.850;2022-10-16T03:28:44;16.20;99.90
3942;DHT22;1985;48.592;8.850;2022-10-16T03:31:10;16.30;99.90
3942;DHT22;1985;48.592;8.850;2022-10-16T03:33:35;16.30;99.90
3942;DHT22;1985;48.592;8.850;2022-10-16T03:36:01;16.30;99.90
3942;DHT22;1985;48.592;8.850;2022-10-16T03:38:27;16.30;99.90
3942;DHT22;1985;48.592;8.850;2022-10-16T03:40:52;16.20;99.90
3942;DHT22;1985;48.592;8.850;2022-10-16T03:43:18;16.20;99.90
3942;DHT22;1985;48.592;8.850;2022-10-16T03:45:44;16.20;99.90
3942;DHT22;1985;48.592;8.850;2022-10-16T03:48:10;16.20;99.90
3942;DHT22;1985;48.592;8.850;2022-10-16T03:50:35;16.20;99.90
3942;DHT22;1985;48.592;8.850;2022-10-16T03:53:01;16.20;99.90
3942;DHT22;1985;48.592;8.850;2022-10-16T03:55:27;16.20;99.90
3942;DHT22;1985;48.592;8.850;2022-10-16T03:57:52;16.20;99.90
3942;DHT22;1985;48.592;8.850;2022-10-16T04:00:18;16.10;99.90
3942;DHT22;1985;48.592;8.850;2022-10-16T04:02:44;16.10;99.90
3942;DHT22;1985;48.592;8.850;2022-10-16T04:05:10;16.20;99.90
3942;DHT22;1985;48.592;8.850;2022-10-16T04:07:35;16.10;99.90
3942;DHT22;1985;48.592;8.850;2022-10-16T04:10:01;16.10;99.90
3942;DHT22;1985;48.592;8.850;2022-10-16T04:12:27;16.10;99.90
3942;DHT22;1985;48.592;8.850;2022-10-16T04:14:53;15.90;99.90
3942;DHT22;1985;48.592;8.850;2022-10-16T04:17:18;15.90;99.90
3942;DHT22;1985;48.592;8.850;2022-10-16T04:19:44;15.90;99.90
3942;DHT22;1985;48.592;8.850;2022-10-16T04:22:11;16.00;99.90
3942;DHT22;1985;48.592;8.850;2022-10-16T04:24:37;16.00;99.90
3942;DHT22;1985;48.592;8.850;2022-10-16T04:27:02;16.10;99.90
3942;DHT22;1985;48.592;8.850;2022-10-16T04:29:28;16.10;99.90
3942;DHT22;1985;48.592;8.850;2022-10-16T04:31:54;16.10;99.90
3942;DHT22;1985;48.592;8.850;2022-10-16T04:34:19;16.10;99.90
3942;DHT22;1985;48.592;8.850;2022-10-16T04:36:47;16.20;99.90
3942;DHT22;1985;48.592;8.850;2022-10-16T04:39:13;16.20;99.90
3942;DHT22;1985;48.592;8.850;2022-10-16T04:41:39;16.30;99.90
3942;DHT22;1985;48.592;8.850;2022-10-16T04:44:05;16.20;99.90
3942;DHT22;1985;48.592;8.850;2022-10-16T04:46:30;16.20;99.90
3942;DHT22;1985;48.592;8.850;2022-10-16T04:48:56;16.20;99.90
3942;DHT22;1985;48.592;8.850;2022-10-16T04:51:21;16.20;99.90
3942;DHT22;1985;48.592;8.850;2022-10-16T04:53:47;16.20;99.90
3942;DHT22;1985;48.592;8.850;2022-10-16T04:56:13;16.20;99.90
3942;DHT22;1985;48.592;8.850;2022-10-16T04:58:40;16.20;99.90
3942;DHT22;1985;48.592;8.850;2022-10-16T05:01:05;16.10;99.90
3942;DHT22;1985;48.592;8.850;2022-10-16T05:03:31;16.10;99.90
3942;DHT22;1985;48.592;8.850;2022-10-16T05:05:56;16.10;99.90
3942;DHT22;1985;48.592;8.850;2022-10-16T05:08:22;16.10;99.90
3942;DHT22;1985;48.592;8.850;2022-10-16T05:10:48;16.10;99.90
3942;DHT22;1985;48.592;8.850;2022-10-16T05:13:13;16.10;99.90
3942;DHT22;1985;48.592;8.850;2022-10-16T05:15:39;16.10;99.90
3942;DHT22;1985;48.592;8.850;2022-10-16T05:18:04;16.00;99.90
3942;DHT22;1985;48.592;8.850;2022-10-16T05:20:30;16.00;99.90
3942;DHT22;1985;48.592;8.850;2022-10-16T05:22:56;15.90;99.90
3942;DHT22;1985;48.592;8.850;2022-10-16T05:25:21;15.90;99.90
3942;DHT22;1985;48.592;8.850;2022-10-16T05:27:47;15.80;99.90
3942;DHT22;1985;48.592;8.850;2022-10-16T05:30:14;15.80;99.90
3942;DHT22;1985;48.592;8.850;2022-10-16T05:32:40;15.80;99.90
3942;DHT22;1985;48.592;8.850;2022-10-16T05:35:05;15.60;99.90
3942;DHT22;1985;48.592;8.850;2022-10-16T05:37:31;15.70;99.90
3942;DHT22;1985;48.592;8.850;2022-10-16T05:39:57;15.70;99.90
3942;DHT22;1985;48.592;8.850;2022-10-16T05:42:22;15.70;99.90
3942;DHT22;1985;48.592;8.850;2022-10-16T05:44:48;15.80;99.90
3942;DHT22;1985;48.592;8.850;2022-10-16T05:47:13;15.70;99.90
3942;DHT22;1985;48.592;8.850;2022-10-16T05:49:40;15.70;99.90
3942;DHT22;1985;48.592;8.850;2022-10-16T05:52:05;15.80;99.90
3942;DHT22;1985;48.592;8.850;2022-10-16T05:54:31;15.80;99.90
3942;DHT22;1985;48.592;8.850;2022-10-16T05:56:57;15.80;99.90
3942;DHT22;1985;48.592;8.850;2022-10-16T05:59:22;15.80;99.90
3942;DHT22;1985;48.592;8.850;2022-10-16T06:01:48;15.80;99.90
3942;DHT22;1985;48.592;8.850;2022-10-16T06:04:14;15.90;99.90
3942;DHT22;1985;48.592;8.850;2022-10-16T06:06:40;15.90;99.90
3942;DHT22;1985;48.592;8.850;2022-10-16T06:09:06;15.90;99.90
3942;DHT22;1985;48.592;8.850;2022-10-16T06:11:32;15.90;99.90
3942;DHT22;1985;48.592;8.850;2022-10-16T06:14:01;15.90;99.90
3942;DHT22;1985;48.592;8.850;2022-10-16T06:16:28;15.90;99.90
3942;DHT22;1985;48.592;8.850;2022-10-16T06:18:55;15.90;99.90
3942;DHT22;1985;48.592;8.850;2022-10-16T06:21:26;16.00;99.90
3942;DHT22;1985;48.592;8.850;2022-10-16T06:23:53;16.00;99.90
3942;DHT22;1985;48.592;8.850;2022-10-16T06:26:22;16.10;99.90
3942;DHT22;1985;48.592;8.850;2022-10-16T06:28:48;16.10;99.90
3942;DHT22;1985;48.592;8.850;2022-10-16T06:31:14;16.10;99.90
3942;DHT22;1985;48.592;8.850;2022-10-16T06:33:41;16.20;99.90
3942;DHT22;1985;48.592;8.850;2022-10-16T06:36:11;16.20;99.90
3942;DHT22;1985;48.592;8.850;2022-10-16T06:38:38;16.10;99.90
3942;DHT22;1985;48.592;8.850;2022-10-16T06:41:04;16.20;99.90
3942;DHT22;1985;48.592;8.850;2022-10-16T06:43:31;16.20;99.90
3942;DHT22;1985;48.592;8.850;2022-10-16T06:45:59;16.20;99.90
3942;DHT22;1985;48.592;8.850;2022-10-16T06:48:26;16.30;99.90
3942;DHT22;1985;48.592;8.850;2022-10-16T06:53:31;16.40;99.90
3942;DHT22;1985;48.592;8.850;2022-10-16T06:55:57;16.40;99.90
3942;DHT22;1985;48.592;8.850;2022-10-16T06:58:23;16.50;99.90
3942;DHT22;1985;48.592;8.850;2022-10-16T07:00:49;16.60;99.90
3942;DHT22;1985;48.592;8.850;2022-10-16T07:03:20;16.70;99.90
3942;DHT22;1985;48.592;8.850;2022-10-16T07:05:46;16.70;99.90
3942;DHT22;1985;48.592;8.850;2022-10-16T07:08:11;16.80;99.90
3942;DHT22;1985;48.592;8.850;2022-10-16T07:10:37;16.90;99.90
3942;DHT22;1985;48.592;8.850;2022-10-16T07:13:03;17.00;99.90
3942;DHT22;1985;48.592;8.850;2022-10-16T07:15:28;17.00;99.90
3942;DHT22;1985;48.592;8.850;2022-10-16T07:17:54;17.10;99.90
3942;DHT22;1985;48.592;8.850;2022-10-16T07:20:20;17.10;99.90
3942;DHT22;1985;48.592;8.850;2022-10-16T07:22:46;17.10;99.90
3942;DHT22;1985;48.592;8.850;2022-10-16T07:25:11;17.20;99.90
3942;DHT22;1985;48.592;8.850;2022-10-16T07:27:37;17.20;99.90
3942;DHT22;1985;48.592;8.850;2022-10-16T07:30:04;17.20;99.90
3942;DHT22;1985;48.592;8.850;2022-10-16T07:32:30;17.20;99.90
3942;DHT22;1985;48.592;8.850;2022-10-16T07:34:56;17.20;99.90
3942;DHT22;1985;48.592;8.850;2022-10-16T07:37:21;17.30;99.90
3942;DHT22;1985;48.592;8.850;2022-10-16T07:39:47;17.30;99.90
3942;DHT22;1985;48.592;8.850;2022-10-16T07:42:13;17.30;99.90
3942;DHT22;1985;48.592;8.850;2022-10-16T07:44:38;17.40;99.90
3942;DHT22;1985;48.592;8.850;2022-10-16T07:47:05;17.50;99.90
3942;DHT22;1985;48.592;8.850;2022-10-16T07:49:31;17.50;99.90
3942;DHT22;1985;48.592;8.850;2022-10-16T07:51:56;17.60;99.90
3942;DHT22;1985;48.592;8.850;2022-10-16T07:54:22;17.60;99.90
3942;DHT22;1985;48.592;8.850;2022-10-16T07:56:47;17.60;99.90
3942;DHT22;1985;48.592;8.850;2022-10-16T07:59:13;17.50;99.90
3942;DHT22;1985;48.592;8.850;2022-10-16T08:01:39;17.50;99.90
3942;DHT22;1985;48.592;8.850;2022-10-16T08:04:05;17.60;99.90
3942;DHT22;1985;48.592;8.850;2022-10-16T08:06:36;17.70;99.90
3942;DHT22;1985;48.592;8.850;2022-10-16T08:09:02;17.70;99.90
3942;DHT22;1985;48.592;8.850;2022-10-16T08:11:28;17.80;99.90
3942;DHT22;1985;48.592;8.850;2022-10-16T08:13:53;18.00;99.90
3942;DHT22;1985;48.592;8.850;2022-10-16T08:16:19;18.00;99.90
3942;DHT22;1985;48.592;8.850;2022-10-16T08:18:45;18.00;99.90
3942;DHT22;1985;48.592;8.850;2022-10-16T08:21:16;17.90;99.90
3942;DHT22;1985;48.592;8.850;2022-10-16T08:23:42;17.90;99.90
3942;DHT22;1985;48.592;8.850;2022-10-16T08:26:09;18.00;99.90
3942;DHT22;1985;48.592;8.850;2022-10-16T08:28:35;18.00;99.90
3942;DHT22;1985;48.592;8.850;2022-10-16T08:31:09;18.10;99.90
3942;DHT22;1985;48.592;8.850;2022-10-16T08:33:35;18.10;99.90
3942;DHT22;1985;48.592;8.850;2022-10-16T08:36:02;18.10;99.90
3942;DHT22;1985;48.592;8.850;2022-10-16T08:38:27;18.10;99.90
3942;DHT22;1985;48.592;8.850;2022-10-16T08:40:57;18.00;99.90
3942;DHT22;1985;48.592;8.850;2022-10-16T08:48:53;17.80;99.90
3942;DHT22;1985;48.592;8.850;2022-10-16T08:54:15;17.90;99.90
3942;DHT22;1985;48.592;8.850;2022-10-16T08:56:39;18.10;99.90
3942;DHT22;1985;48.592;8.850;2022-10-16T08:59:10;18.10;99.90
3942;DHT22;1985;48.592;8.850;2022-10-16T09:01:41;18.20;99.90
3942;DHT22;1985;48.592;8.850;2022-10-16T09:16:19;18.30;99.90
3942;DHT22;1985;48.592;8.850;2022-10-16T09:19:49;18.50;99.90
3942;DHT22;1985;48.592;8.850;2022-10-16T09:21:59;18.90;99.90
3942;DHT22;1985;48.592;8.850;2022-10-16T09:24:27;19.20;99.90
3942;DHT22;1985;48.592;8.850;2022-10-16T09:26:52;19.40;99.90
3942;DHT22;1985;48.592;8.850;2022-10-16T09:29:20;19.60;99.90
3942;DHT22;1985;48.592;8.850;2022-10-16T09:31:47;19.50;99.90
3942;DHT22;1985;48.592;8.850;2022-10-16T09:34:34;19.60;99.90
3942;DHT22;1985;48.592;8.850;2022-10-16T09:37:05;19.60;99.90
3942;DHT22;1985;48.592;8.850;2022-10-16T09:39:51;19.60;99.90
3942;DHT22;1985;48.592;8.850;2022-10-16T09:42:23;19.90;99.90
3942;DHT22;1985;48.592;8.850;2022-10-16T09:44:53;20.30;99.90
3942;DHT22;1985;48.592;8.850;2022-10-16T09:47:24;20.60;99.90
3942;DHT22;1985;48.592;8.850;2022-10-16T09:49:59;20.50;99.90
3942;DHT22;1985;48.592;8.850;2022-10-16T09:52:28;20.40;99.90
3942;DHT22;1985;48.592;8.850;2022-10-16T09:54:57;20.30;99.90
3942;DHT22;1985;48.592;8.850;2022-10-16T09:57:24;20.40;99.90
3942;DHT22;1985;48.592;8.850;2022-10-16T09:59:55;20.80;99.90
3942;DHT22;1985;48.592;8.850;2022-10-16T10:02:50;20.90;99.90
3942;DHT22;1985;48.592;8.850;2022-10-16T10:05:28;21.20;99.90
3942;DHT22;1985;48.592;8.850;2022-10-16T10:07:59;21.10;99.90
3942;DHT22;1985;48.592;8.850;2022-10-16T10:10:30;21.40;99.90
3942;DHT22;1985;48.592;8.850;2022-10-16T10:12:56;21.90;99.90
3942;DHT22;1985;48.592;8.850;2022-10-16T10:15:23;23.20;99.90
3942;DHT22;1985;48.592;8.850;2022-10-16T10:17:54;23.70;99.90
3942;DHT22;1985;48.592;8.850;2022-10-16T10:22:53;25.40;99.90
3942;DHT22;1985;48.592;8.850;2022-10-16T10:25:26;26.90;99.90
3942;DHT22;1985;48.592;8.850;2022-10-16T10:30:54;26.70;95.90
3942;DHT22;1985;48.592;8.850;2022-10-16T10:33:38;26.70;95.20
3942;DHT22;1985;48.592;8.850;2022-10-16T10:46:54;26.70;92.80
3942;DHT22;1985;48.592;8.850;2022-10-16T10:54:55;26.40;90.50
3942;DHT22;1985;48.592;8.850;2022-10-16T11:00:36;25.90;91.60
3942;DHT22;1985;48.592;8.850;2022-10-16T11:05:45;24.30;93.10
3942;DHT22;1985;48.592;8.850;2022-10-16T11:08:22;24.10;94.60
3942;DHT22;1985;48.592;8.850;2022-10-16T11:10:58;23.80;93.70
3942;DHT22;1985;48.592;8.850;2022-10-16T11:25:11;30.70;77.90
3942;DHT22;1985;48.592;8.850;2022-10-16T11:30:47;26.80;74.30
3942;DHT22;1985;48.592;8.850;2022-10-16T11:35:53;26.50;81.60
3942;DHT22;1985;48.592;8.850;2022-10-16T11:38:43;27.20;80.10
3942;DHT22;1985;48.592;8.850;2022-10-16T11:46:38;26.50;78.20
3942;DHT22;1985;48.592;8.850;2022-10-16T11:49:16;26.30;77.70
3942;DHT22;1985;48.592;8.850;2022-10-16T11:51:51;26.60;76.90
3942;DHT22;1985;48.592;8.850;2022-10-16T11:54:41;26.50;76.60
3942;DHT22;1985;48.592;8.850;2022-10-16T11:57:17;26.70;76.40
3942;DHT22;1985;48.592;8.850;2022-10-16T11:59:47;27.10;77.30
3942;DHT22;1985;48.592;8.850;2022-10-16T12:07:50;24.60;80.50
3942;DHT22;1985;48.592;8.850;2022-10-16T12:10:24;24.40;83.10
3942;DHT22;1985;48.592;8.850;2022-10-16T12:12:50;24.50;84.90
3942;DHT22;1985;48.592;8.850;2022-10-16T12:15:26;24.30;82.50
3942;DHT22;1985;48.592;8.850;2022-10-16T12:17:52;24.40;83.30
3942;DHT22;1985;48.592;8.850;2022-10-16T12:20:32;24.80;83.60
3942;DHT22;1985;48.592;8.850;2022-10-16T12:23:07;24.80;81.10
3942;DHT22;1985;48.592;8.850;2022-10-16T12:25:54;25.40;81.10
3942;DHT22;1985;48.592;8.850;2022-10-16T12:28:22;25.40;80.90
3942;DHT22;1985;48.592;8.850;2022-10-16T12:30:59;26.40;80.80
3942;DHT22;1985;48.592;8.850;2022-10-16T12:33:33;28.70;73.40
3942;DHT22;1985;48.592;8.850;2022-10-16T12:36:02;30.40;70.70
3942;DHT22;1985;48.592;8.850;2022-10-16T12:41:11;33.40;61.70
3942;DHT22;1985;48.592;8.850;2022-10-16T12:43:39;34.30;59.60
3942;DHT22;1985;48.592;8.850;2022-10-16T12:48:34;34.60;55.10
3942;DHT22;1985;48.592;8.850;2022-10-16T12:59:19;31.70;58.60
3942;DHT22;1985;48.592;8.850;2022-10-16T13:02:01;31.20;59.10
3942;DHT22;1985;48.592;8.850;2022-10-16T13:05:00;30.60;61.40
3942;DHT22;1985;48.592;8.850;2022-10-16T13:16:52;28.20;66.60
3942;DHT22;1985;48.592;8.850;2022-10-16T13:24:31;28.10;66.30
3942;DHT22;1985;48.592;8.850;2022-10-16T13:29:54;27.20;66.60
3942;DHT22;1985;48.592;8.850;2022-10-16T13:32:26;26.60;68.20
3942;DHT22;1985;48.592;8.850;2022-10-16T13:34:52;26.10;70.20
3942;DHT22;1985;48.592;8.850;2022-10-16T13:37:24;25.80;68.90
3942;DHT22;1985;48.592;8.850;2022-10-16T13:39:50;25.50;70.50
3942;DHT22;1985;48.592;8.850;2022-10-16T13:42:26;25.30;73.50
3942;DHT22;1985;48.592;8.850;2022-10-16T13:44:54;25.20;75.90
3942;DHT22;1985;48.592;8.850;2022-10-16T13:47:26;25.10;77.00
3942;DHT22;1985;48.592;8.850;2022-10-16T13:50:01;25.00;78.20
3942;DHT22;1985;48.592;8.850;2022-10-16T13:52:27;25.10;79.50
3942;DHT22;1985;48.592;8.850;2022-10-16T13:54:53;25.10;78.70
3942;DHT22;1985;48.592;8.850;2022-10-16T13:57:23;25.10;78.70
3942;DHT22;1985;48.592;8.850;2022-10-16T13:59:48;25.10;79.90
3942;DHT22;1985;48.592;8.850;2022-10-16T14:04:46;24.90;80.50
3942;DHT22;1985;48.592;8.850;2022-10-16T14:07:23;24.80;81.20
3942;DHT22;1985;48.592;8.850;2022-10-16T14:09:51;24.90;82.10
3942;DHT22;1985;48.592;8.850;2022-10-16T14:12:17;24.90;81.80
3942;DHT22;1985;48.592;8.850;2022-10-16T14:14:47;24.80;81.60
3942;DHT22;1985;48.592;8.850;2022-10-16T14:17:31;24.80;81.60
3942;DHT22;1985;48.592;8.850;2022-10-16T14:19:59;24.90;82.20
3942;DHT22;1985;48.592;8.850;2022-10-16T14:22:40;24.90;82.00
3942;DHT22;1985;48.592;8.850;2022-10-16T14:25:23;25.00;80.70
3942;DHT22;1985;48.592;8.850;2022-10-16T14:28:18;25.10;80.10
3942;DHT22;1985;48.592;8.850;2022-10-16T14:30:56;25.10;79.50
3942;DHT22;1985;48.592;8.850;2022-10-16T14:38:25;25.20;79.70
3942;DHT22;1985;48.592;8.850;2022-10-16T14:40:51;25.30;79.20
3942;DHT22;1985;48.592;8.850;2022-10-16T14:43:31;25.40;78.60
3942;DHT22;1985;48.592;8.850;2022-10-16T14:45:58;25.40;78.80
3942;DHT22;1985;48.592;8.850;2022-10-16T14:48:24;25.20;78.40
3942;DHT22;1985;48.592;8.850;2022-10-16T14:50:50;25.10;78.80
3942;DHT22;1985;48.592;8.850;2022-10-16T14:53:16;25.10;79.00
3942;DHT22;1985;48.592;8.850;2022-10-16T14:55:42;25.10;79.70
3942;DHT22;1985;48.592;8.850;2022-10-16T14:58:19;25.10;79.10
3942;DHT22;1985;48.592;8.850;2022-10-16T15:00:46;25.10;79.70
3942;DHT22;1985;48.592;8.850;2022-10-16T15:03:12;25.10;79.40
3942;DHT22;1985;48.592;8.850;2022-10-16T15:05:38;25.00;79.90
3942;DHT22;1985;48.592;8.850;2022-10-16T15:08:03;24.90;79.90
3942;DHT22;1985;48.592;8.850;2022-10-16T15:10:31;24.80;80.30
3942;DHT22;1985;48.592;8.850;2022-10-16T15:12:58;24.50;80.80
3942;DHT22;1985;48.592;8.850;2022-10-16T15:15:37;24.50;81.20
3942;DHT22;1985;48.592;8.850;2022-10-16T15:18:03;24.40;83.20
3942;DHT22;1985;48.592;8.850;2022-10-16T15:20:32;24.30;83.60
3942;DHT22;1985;48.592;8.850;2022-10-16T15:23:00;24.30;83.50
3942;DHT22;1985;48.592;8.850;2022-10-16T15:25:51;24.20;83.30
3942;DHT22;1985;48.592;8.850;2022-10-16T15:28:18;24.10;83.80
3942;DHT22;1985;48.592;8.850;2022-10-16T15:30:44;24.10;84.90
3942;DHT22;1985;48.592;8.850;2022-10-16T15:33:23;24.00;86.90
3942;DHT22;1985;48.592;8.850;2022-10-16T15:35:51;23.90;87.10
3942;DHT22;1985;48.592;8.850;2022-10-16T15:38:18;23.80;87.10
3942;DHT22;1985;48.592;8.850;2022-10-16T15:40:46;23.60;84.80
3942;DHT22;1985;48.592;8.850;2022-10-16T15:43:11;23.30;85.80
3942;DHT22;1985;48.592;8.850;2022-10-16T15:45:37;23.20;86.80
3942;DHT22;1985;48.592;8.850;2022-10-16T15:48:03;23.20;87.00
3942;DHT22;1985;48.592;8.850;2022-10-16T15:50:30;23.20;88.80
3942;DHT22;1985;48.592;8.850;2022-10-16T15:52:55;23.10;90.00
3942;DHT22;1985;48.592;8.850;2022-10-16T15:55:21;23.00;90.50
3942;DHT22;1985;48.592;8.850;2022-10-16T15:57:47;22.90;91.00
3942;DHT22;1985;48.592;8.850;2022-10-16T16:00:16;22.80;92.10
3942;DHT22;1985;48.592;8.850;2022-10-16T16:02:43;22.70;93.00
3942;DHT22;1985;48.592;8.850;2022-10-16T16:05:10;22.60;93.70
3942;DHT22;1985;48.592;8.850;2022-10-16T16:07:36;22.50;94.10
3942;DHT22;1985;48.592;8.850;2022-10-16T16:10:04;22.50;94.60
3942;DHT22;1985;48.592;8.850;2022-10-16T16:12:30;22.30;95.10
3942;DHT22;1985;48.592;8.850;2022-10-16T16:14:56;22.20;95.60
3942;DHT22;1985;48.592;8.850;2022-10-16T16:17:22;22.10;96.50
3942;DHT22;1985;48.592;8.850;2022-10-16T16:19:48;22.00;97.00
3942;DHT22;1985;48.592;8.850;2022-10-16T16:22:14;22.00;97.70
3942;DHT22;1985;48.592;8.850;2022-10-16T16:24:40;21.80;98.40
3942;DHT22;1985;48.592;8.850;2022-10-16T16:27:05;21.70;99.20
3942;DHT22;1985;48.592;8.850;2022-10-16T16:29:31;21.70;99.80
3942;DHT22;1985;48.592;8.850;2022-10-16T16:31:56;21.60;99.90
3942;DHT22;1985;48.592;8.850;2022-10-16T16:34:25;21.50;99.90
3942;DHT22;1985;48.592;8.850;2022-10-16T16:36:51;21.40;99.90
3942;DHT22;1985;48.592;8.850;2022-10-16T16:39:16;21.30;99.90
3942;DHT22;1985;48.592;8.850;2022-10-16T16:41:42;21.20;99.90
3942;DHT22;1985;48.592;8.850;2022-10-16T16:44:09;21.10;99.90
3942;DHT22;1985;48.592;8.850;2022-10-16T16:46:36;21.00;99.90
3942;DHT22;1985;48.592;8.850;2022-10-16T16:49:03;21.00;99.90
3942;DHT22;1985;48.592;8.850;2022-10-16T16:51:29;20.80;99.90
3942;DHT22;1985;48.592;8.850;2022-10-16T16:53:55;20.70;99.90
3942;DHT22;1985;48.592;8.850;2022-10-16T16:56:23;20.70;99.90
3942;DHT22;1985;48.592;8.850;2022-10-16T16:58:50;20.60;99.90
3942;DHT22;1985;48.592;8.850;2022-10-16T17:01:16;20.50;99.90
3942;DHT22;1985;48.592;8.850;2022-10-16T17:03:43;20.50;99.90
3942;DHT22;1985;48.592;8.850;2022-10-16T17:06:10;20.40;99.90
3942;DHT22;1985;48.592;8.850;2022-10-16T17:08:37;20.30;99.90
3942;DHT22;1985;48.592;8.850;2022-10-16T17:11:04;20.20;99.90
3942;DHT22;1985;48.592;8.850;2022-10-16T17:13:32;20.20;99.90
3942;DHT22;1985;48.592;8.850;2022-10-16T17:16:04;20.20;99.90
3942;DHT22;1985;48.592;8.850;2022-10-16T17:18:31;20.10;99.90
3942;DHT22;1985;48.592;8.850;2022-10-16T17:21:02;20.00;99.90
3942;DHT22;1985;48.592;8.850;2022-10-16T17:23:27;19.90;99.90
3942;DHT22;1985;48.592;8.850;2022-10-16T17:25:53;19.90;99.90
3942;DHT22;1985;48.592;8.850;2022-10-16T17:28:19;19.90;99.90
3942;DHT22;1985;48.592;8.850;2022-10-16T17:30:45;19.90;99.90
3942;DHT22;1985;48.592;8.850;2022-10-16T17:33:11;19.80;99.90
3942;DHT22;1985;48.592;8.850;2022-10-16T17:35:45;19.80;99.90
3942;DHT22;1985;48.592;8.850;2022-10-16T17:38:12;19.90;99.90
3942;DHT22;1985;48.592;8.850;2022-10-16T17:40:38;19.80;99.90
3942;DHT22;1985;48.592;8.850;2022-10-16T17:43:05;19.70;99.90
3942;DHT22;1985;48.592;8.850;2022-10-16T17:45:31;19.70;99.90
3942;DHT22;1985;48.592;8.850;2022-10-16T17:47:59;19.70;99.90
3942;DHT22;1985;48.592;8.850;2022-10-16T17:50:25;19.70;99.90
3942;DHT22;1985;48.592;8.850;2022-10-16T17:52:51;19.60;99.90
3942;DHT22;1985;48.592;8.850;2022-10-16T17:55:16;19.60;99.90
3942;DHT22;1985;48.592;8.850;2022-10-16T17:57:42;19.50;99.90
3942;DHT22;1985;48.592;8.850;2022-10-16T18:00:09;19.30;99.90
3942;DHT22;1985;48.592;8.850;2022-10-16T18:02:35;19.30;99.90
3942;DHT22;1985;48.592;8.850;2022-10-16T18:05:01;19.20;99.90
3942;DHT22;1985;48.592;8.850;2022-10-16T18:07:26;19.10;99.90
3942;DHT22;1985;48.592;8.850;2022-10-16T18:09:52;19.10;99.90
3942;DHT22;1985;48.592;8.850;2022-10-16T18:12:17;19.10;99.90
3942;DHT22;1985;48.592;8.850;2022-10-16T18:14:43;19.10;99.90
3942;DHT22;1985;48.592;8.850;2022-10-16T18:17:09;19.00;99.90
3942;DHT22;1985;48.592;8.850;2022-10-16T18:19:35;18.90;99.90
3942;DHT22;1985;48.592;8.850;2022-10-16T18:22:00;18.90;99.90
3942;DHT22;1985;48.592;8.850;2022-10-16T18:24:26;18.90;99.90
3942;DHT22;1985;48.592;8.850;2022-10-16T18:26:54;18.90;99.90
3942;DHT22;1985;48.592;8.850;2022-10-16T18:29:25;18.90;99.90
3942;DHT22;1985;48.592;8.850;2022-10-16T18:31:52;18.80;99.90